createdAt,value
2023-02-24T01:04:44.516Z,99904.59
2023-02-24T01:07:14.064Z,99797.75
2023-02-24T01:09:41.998Z,99908.06
2023-02-24T01:12:29.516Z,99902.88
2023-02-24T01:14:56.930Z,99908.06
2023-02-24T01:17:25.524Z,99907.19
2023-02-24T01:19:53.178Z,99903.75
2023-02-24T01:22:22.758Z,99889.06
2023-02-24T01:24:50.054Z,99862.34
2023-02-24T01:27:19.560Z,99796.88
2023-02-24T01:29:48.085Z,99882.19
2023-02-24T01:32:18.864Z,99883.91
2023-02-24T01:34:47.799Z,99878.72
2023-02-24T01:37:19.349Z,99852.88
2023-02-24T01:39:47.475Z,99870.09
2023-02-24T01:42:17.198Z,99871.84
2023-02-24T01:44:48.073Z,99880.47
2023-02-24T01:47:23.679Z,99877.03
2023-02-24T01:49:54.079Z,99877.88
2023-02-24T01:52:25.155Z,99874.44
2023-02-24T01:54:59.609Z,99866.69
2023-02-24T01:57:31.435Z,99795.16
2023-02-24T02:00:11.202Z,99790.00
2023-02-24T02:02:46.047Z,99856.34
2023-02-24T02:05:14.902Z,99737.47
2023-02-24T02:07:43.740Z,99744.34
2023-02-24T02:10:11.882Z,99848.59
2023-02-24T02:12:44.510Z,99849.44
2023-02-24T02:15:20.804Z,99840.81
2023-02-24T02:17:55.019Z,99835.66
2023-02-24T02:21:19.091Z,99833.06
2023-02-24T02:23:57.994Z,99827.91
2023-02-24T02:26:47.480Z,99834.78
2023-02-24T02:29:42.470Z,99830.47
2023-02-24T02:32:32.122Z,99824.44
2023-02-24T02:35:19.024Z,99830.47
2023-02-24T02:38:15.315Z,99823.56
2023-02-24T02:41:22.676Z,99768.44
2023-02-24T02:43:58.934Z,99827.91
2023-02-24T02:46:38.612Z,99818.41
2023-02-24T02:49:19.802Z,99819.25
2023-02-24T02:51:53.889Z,99820.97
2023-02-24T02:54:33.819Z,99665.16
2023-02-24T02:57:20.534Z,99708.16
2023-02-24T03:00:14.494Z,99817.53
2023-02-24T03:03:06.775Z,99801.19
2023-02-24T03:06:01.822Z,99813.22
2023-02-24T03:08:52.289Z,99811.50
2023-02-24T03:11:42.443Z,99809.78
2023-02-24T03:14:34.762Z,99807.19
2023-02-24T03:17:24.532Z,99776.16
2023-02-24T03:20:19.505Z,99806.31
2023-02-24T03:23:20.080Z,99808.00
2023-02-24T03:26:25.688Z,99805.41
2023-02-24T03:30:09.947Z,99799.41
2023-02-24T03:33:03.021Z,99786.50
2023-02-24T03:35:57.096Z,99797.63
2023-02-24T03:38:45.119Z,99737.34
2023-02-24T03:41:34.108Z,99793.31
2023-02-24T03:44:22.962Z,99791.59
2023-02-24T03:47:10.452Z,99791.63
2023-02-24T03:49:57.626Z,99798.50
2023-02-24T03:53:04.007Z,99798.47
2023-02-24T03:56:11.786Z,99803.63
2023-02-24T03:59:34.154Z,99811.41
2023-02-24T04:02:50.122Z,99820.03
2023-02-24T04:05:41.992Z,99807.06
2023-02-24T04:08:30.129Z,99809.66
2023-02-24T04:11:50.683Z,99803.56
2023-02-24T04:14:46.793Z,99804.44
2023-02-24T04:17:40.732Z,99807.88
2023-02-24T04:20:36.509Z,99805.28
2023-02-24T04:23:34.264Z,99803.53
2023-02-24T04:26:22.291Z,99804.41
2023-02-24T04:29:10.065Z,99791.44
2023-02-24T04:31:58.572Z,99794.88
2023-02-24T04:34:45.607Z,99794.88
2023-02-24T04:37:32.846Z,99791.38
2023-02-24T04:40:22.394Z,99793.97
2023-02-24T04:43:10.789Z,99701.88
2023-02-24T04:45:57.989Z,99784.50
2023-02-24T04:48:44.940Z,99785.34
2023-02-24T04:51:32.514Z,99786.16
2023-02-24T04:54:19.765Z,99776.66
2023-02-24T04:57:08.667Z,99786.97
2023-02-24T04:59:55.754Z,99786.97
2023-02-24T05:02:42.683Z,99736.19
2023-02-24T05:05:29.686Z,99767.16
2023-02-24T05:08:24.700Z,99787.81
2023-02-24T05:11:12.085Z,99788.63
2023-02-24T05:13:59.098Z,99769.66
2023-02-24T05:16:46.424Z,99767.03
2023-02-24T05:19:36.939Z,99757.47
2023-02-24T05:22:24.164Z,99749.72
2023-02-24T05:25:11.096Z,99755.72
2023-02-24T05:27:58.216Z,99688.66
2023-02-24T05:30:45.478Z,99758.31
2023-02-24T05:33:32.551Z,99747.97
2023-02-24T05:36:23.332Z,99764.34
2023-02-24T05:39:15.666Z,99762.63
2023-02-24T05:42:03.186Z,99661.97
2023-02-24T05:44:50.229Z,99769.50
2023-02-24T05:47:37.140Z,99768.63
2023-02-24T05:50:24.468Z,99771.19
2023-02-24T05:53:11.314Z,99782.41
2023-02-24T05:55:58.476Z,99778.09
2023-02-24T05:58:45.435Z,99670.56
2023-02-24T06:01:36.713Z,99763.34
2023-02-24T06:04:26.294Z,99717.78
2023-02-24T06:07:13.829Z,99765.88
2023-02-24T06:10:01.534Z,99663.56
2023-02-24T06:12:51.122Z,99769.28
2023-02-24T06:15:37.974Z,99768.44
2023-02-24T06:18:24.911Z,99752.94
2023-02-24T06:21:11.864Z,99748.59
2023-02-24T06:24:00.398Z,99768.38
2023-02-24T06:26:48.057Z,99763.19
2023-02-24T06:29:36.770Z,99763.16
2023-02-24T06:32:30.960Z,99760.56
2023-02-24T06:35:18.000Z,99750.22
2023-02-24T06:38:04.838Z,99750.16
2023-02-24T06:40:51.647Z,99748.38
2023-02-24T06:43:38.483Z,99753.50
2023-02-24T06:46:29.536Z,99748.31
2023-02-24T06:49:16.697Z,99746.56
2023-02-24T06:52:03.666Z,99752.56
2023-02-24T06:54:50.659Z,99752.53
2023-02-24T06:57:37.828Z,99654.56
2023-02-24T07:00:37.396Z,99758.56
2023-02-24T07:03:45.917Z,99761.94
2023-02-24T07:06:42.222Z,99649.31
2023-02-24T07:09:32.169Z,99746.44
2023-02-24T07:12:19.296Z,99651.81
2023-02-24T07:15:06.662Z,99749.78
2023-02-24T07:17:53.760Z,99763.53
2023-02-24T07:20:40.731Z,99702.44
2023-02-24T07:23:28.140Z,99770.38
2023-02-24T07:26:15.097Z,99761.69
2023-02-24T07:29:03.707Z,99674.03
2023-02-24T07:31:51.398Z,99745.28
2023-02-24T07:34:38.663Z,99757.28
2023-02-24T07:37:25.727Z,99753.84
2023-02-24T07:40:12.606Z,99737.44
2023-02-24T07:42:59.652Z,99763.22
2023-02-24T07:45:46.871Z,99745.13
2023-02-24T07:48:33.694Z,99760.53
2023-02-24T07:51:21.245Z,99751.91
2023-02-24T07:54:14.503Z,99765.66
2023-02-24T07:57:07.888Z,99758.69
2023-02-24T07:59:55.930Z,99674.47
2023-02-24T08:02:43.232Z,99771.59
2023-02-24T08:05:30.234Z,99697.56
2023-02-24T08:08:17.142Z,99768.91
2023-02-24T08:11:04.164Z,99766.25
2023-02-24T08:13:51.004Z,99764.47
2023-02-24T08:16:37.898Z,99756.59
2023-02-24T08:19:26.177Z,99732.59
2023-02-24T08:22:13.516Z,99772.06
2023-02-24T08:25:00.468Z,99719.53
2023-02-24T08:28:05.099Z,99765.88
2023-02-24T08:31:01.081Z,99775.34
2023-02-24T08:33:48.134Z,99768.31
2023-02-24T08:36:37.002Z,99769.09
2023-02-24T08:39:23.865Z,99771.63
2023-02-24T08:42:13.434Z,99757.78
2023-02-24T08:45:00.951Z,99767.13
2023-02-24T08:47:52.308Z,99763.63
2023-02-24T08:50:39.166Z,99765.22
2023-02-24T08:53:25.974Z,99765.16
2023-02-24T08:56:12.920Z,99769.38
2023-02-24T08:59:01.144Z,99775.41
2023-02-24T09:01:59.494Z,99773.56
2023-02-24T09:04:51.013Z,99763.94
2023-02-24T09:07:49.946Z,99775.06
2023-02-24T09:10:39.949Z,99769.75
2023-02-24T09:13:27.008Z,99773.16
2023-02-24T09:16:14.004Z,99774.78
2023-02-24T09:19:01.039Z,99772.09
2023-02-24T09:21:46.560Z,99770.25
2023-02-24T09:24:33.410Z,99753.91
2023-02-24T09:27:20.489Z,99774.41
2023-02-24T09:30:10.075Z,99779.50
2023-02-24T09:32:57.003Z,99779.41
2023-02-24T09:35:43.885Z,99771.59
2023-02-24T09:38:30.795Z,99780.03
2023-02-24T09:41:19.085Z,99772.16
2023-02-24T09:44:06.258Z,99758.25
2023-02-24T09:46:58.957Z,99779.69
2023-02-24T09:50:04.259Z,99776.97
2023-02-24T09:53:10.716Z,99778.56
2023-02-24T09:56:04.333Z,99777.56
2023-02-24T09:59:07.906Z,99772.31
2023-02-24T10:02:04.547Z,99781.69
2023-02-24T10:04:54.086Z,99777.25
2023-02-24T10:08:02.023Z,99781.47
2023-02-24T10:10:55.015Z,99778.72
2023-02-24T10:13:44.874Z,99785.53
2023-02-24T10:16:36.554Z,99780.25
2023-02-24T10:19:34.001Z,99782.72
2023-02-24T10:22:27.378Z,99771.28
2023-02-24T10:25:21.087Z,99766.78
2023-02-24T10:28:37.595Z,99761.38
2023-02-24T10:31:46.653Z,99756.03
2023-02-24T10:34:39.427Z,99754.16
2023-02-24T10:37:35.416Z,99753.06
2023-02-24T10:40:25.803Z,99745.91
2023-02-24T10:43:24.774Z,99745.72
2023-02-24T10:46:14.567Z,99743.81
2023-02-24T10:49:01.488Z,99734.09
2023-02-24T10:51:57.486Z,99731.25
2023-02-24T10:54:55.308Z,99731.94
2023-02-24T10:57:53.538Z,99685.66
2023-02-24T11:00:53.776Z,99732.44
2023-02-24T11:03:45.683Z,99725.38
2023-02-24T11:06:50.439Z,99730.31
2023-02-24T11:09:28.661Z,99727.53
2023-02-24T11:12:16.994Z,99729.22
2023-02-24T11:15:27.106Z,99738.56
2023-02-24T11:18:16.906Z,99734.03
2023-02-24T11:21:10.568Z,99734.75
2023-02-24T11:24:04.153Z,99730.28
2023-02-24T11:27:02.895Z,99721.38
2023-02-24T11:30:02.445Z,99673.28
2023-02-24T11:33:22.792Z,99721.06
2023-02-24T11:36:15.765Z,99722.66
2023-02-24T11:39:18.966Z,99719.03
2023-02-24T11:42:13.796Z,99707.59
2023-02-24T11:45:11.934Z,99718.72
2023-02-24T11:48:05.335Z,99678.28
2023-02-24T11:51:01.363Z,99724.47
2023-02-24T11:53:48.381Z,99717.41
2023-02-24T11:56:56.562Z,99719.91
2023-02-24T11:59:55.170Z,99724.09
2023-02-24T12:03:08.423Z,99721.34
2023-02-24T12:06:03.692Z,99717.69
2023-02-24T12:08:55.702Z,99671.34
2023-02-24T12:12:06.711Z,99711.34
2023-02-24T12:15:07.520Z,99710.31
2023-02-24T12:18:04.103Z,99705.91
2023-02-24T12:21:01.046Z,99711.03
2023-02-24T12:23:54.662Z,99701.31
2023-02-24T12:26:49.872Z,99673.03
2023-02-24T12:30:25.352Z,99714.22
2023-02-24T12:33:37.026Z,99715.88
2023-02-24T12:36:31.007Z,99705.28
2023-02-24T12:39:40.917Z,99709.56
2023-02-24T12:42:42.265Z,99693.84
2023-02-24T12:46:02.751Z,99699.00
2023-02-24T12:48:57.083Z,99698.97
2023-02-24T12:51:56.865Z,99684.38
2023-02-24T12:54:52.132Z,99698.81
2023-02-24T12:57:47.874Z,99705.75
2023-02-24T13:00:43.522Z,99701.38
2023-02-24T13:03:33.126Z,99700.41
2023-02-24T13:06:41.335Z,99707.34
2023-02-24T13:09:42.479Z,99672.94
2023-02-24T13:12:47.799Z,99696.97
2023-02-24T13:15:43.796Z,99705.47
2023-02-24T13:18:30.643Z,99699.38
2023-02-24T13:21:42.063Z,99690.72
2023-02-24T13:24:42.309Z,99688.88
2023-02-24T13:27:56.034Z,99705.47
2023-02-24T13:30:52.966Z,99708.06
2023-02-24T13:33:39.751Z,99708.06
2023-02-24T13:36:32.462Z,99702.03
2023-02-24T13:39:40.353Z,99701.22
2023-02-24T13:42:43.883Z,99704.78
2023-02-24T13:45:30.693Z,99710.78
2023-02-24T13:48:55.129Z,99709.06
2023-02-24T13:51:50.823Z,99709.97
2023-02-24T13:55:10.083Z,99714.38
2023-02-24T13:58:07.338Z,99712.69
2023-02-24T14:01:00.026Z,99710.94
2023-02-24T14:03:48.842Z,99710.97
2023-02-24T14:06:46.863Z,99710.13
2023-02-24T14:09:38.382Z,99707.50
2023-02-24T14:12:43.499Z,99711.94
2023-02-24T14:15:35.935Z,99647.56
2023-02-24T14:18:25.203Z,99715.47
2023-02-24T14:21:13.742Z,99714.63
2023-02-24T14:24:00.596Z,99718.91
2023-02-24T14:26:50.348Z,99711.94
2023-02-24T14:29:44.515Z,99689.78
2023-02-24T14:32:44.300Z,99713.72
2023-02-24T14:35:51.351Z,99707.59
2023-02-24T14:38:49.086Z,99712.06
2023-02-24T14:41:46.398Z,99719.97
2023-02-24T14:44:45.632Z,99713.97
2023-02-24T14:47:35.026Z,99685.75
2023-02-24T14:50:24.753Z,99713.19
2023-02-24T14:53:17.182Z,99720.25
2023-02-24T14:56:10.270Z,99716.84
2023-02-24T14:59:19.865Z,99719.56
2023-02-24T15:02:10.097Z,99693.81
2023-02-24T15:04:59.653Z,99726.59
2023-02-24T15:07:51.853Z,99727.63
2023-02-24T15:10:42.513Z,99714.00
2023-02-24T15:13:43.440Z,99735.56
2023-02-24T15:16:57.006Z,99724.44
2023-02-24T15:20:00.056Z,99735.72
2023-02-24T15:22:49.518Z,99722.84
2023-02-24T15:25:42.927Z,99742.00
2023-02-24T15:28:51.091Z,99745.63
2023-02-24T15:31:40.760Z,99665.03
2023-02-24T15:34:38.701Z,99751.88
2023-02-24T15:37:47.696Z,99755.50
2023-02-24T15:40:44.214Z,99756.53
2023-02-24T15:43:31.563Z,99754.78
2023-02-24T15:46:18.432Z,99750.59
2023-02-24T15:49:07.648Z,99754.13
2023-02-24T15:51:54.401Z,99757.72
2023-02-24T15:54:59.009Z,99763.94
2023-02-24T15:57:46.088Z,99766.63
2023-02-24T16:00:36.279Z,99765.91
2023-02-24T16:03:23.335Z,99757.31
2023-02-24T16:06:12.393Z,99760.13
2023-02-24T16:09:01.311Z,99775.81
2023-02-24T16:11:55.427Z,99768.09
2023-02-24T16:14:42.264Z,99775.22
2023-02-24T16:17:41.319Z,99768.50
2023-02-24T16:20:48.638Z,99778.94
2023-02-24T16:23:35.912Z,99773.13
2023-02-24T16:26:23.507Z,99778.31
2023-02-24T16:29:16.809Z,99779.34
2023-02-24T16:32:03.914Z,99793.44
2023-02-24T16:34:51.015Z,99780.47
2023-02-24T16:37:39.746Z,99790.16
2023-02-24T16:40:43.117Z,99791.16
2023-02-24T16:43:30.629Z,99793.94
2023-02-24T16:46:23.902Z,99793.22
2023-02-24T16:49:13.031Z,99796.84
2023-02-24T16:52:00.245Z,99795.22
2023-02-24T16:54:47.168Z,99801.47
2023-02-24T16:57:34.339Z,99796.41
2023-02-24T17:00:23.868Z,99798.25
2023-02-24T17:03:11.781Z,99806.16
2023-02-24T17:05:58.627Z,99818.44
2023-02-24T17:08:45.965Z,99781.56
2023-02-24T17:11:35.702Z,99820.38
2023-02-24T17:14:22.742Z,99825.66
2023-02-24T17:17:09.690Z,99813.66
2023-02-24T17:19:56.867Z,99829.34
2023-02-24T17:22:43.753Z,99829.47
2023-02-24T17:25:39.515Z,99838.16
2023-02-24T17:28:26.425Z,99832.28
2023-02-24T17:31:13.583Z,99832.28
2023-02-24T17:34:00.587Z,99834.91
2023-02-24T17:36:48.142Z,99844.53
2023-02-24T17:39:35.157Z,99843.69
2023-02-24T17:42:22.169Z,99855.03
2023-02-24T17:45:09.340Z,99858.56
2023-02-24T17:47:56.382Z,99859.47
2023-02-24T17:50:43.343Z,99863.88
2023-02-24T17:53:30.838Z,99868.28
2023-02-24T17:56:25.189Z,99882.22
2023-02-24T17:59:12.278Z,99877.88
2023-02-24T18:01:59.197Z,99880.56
2023-02-24T18:04:46.145Z,99885.78
2023-02-24T18:07:33.600Z,99887.56
2023-02-24T18:10:20.530Z,99894.56
2023-02-24T18:13:07.482Z,99890.22
2023-02-24T18:15:54.502Z,99891.16
2023-02-24T18:18:41.512Z,99885.22
2023-02-24T18:21:28.783Z,99887.78
2023-02-24T18:24:16.184Z,99896.47
2023-02-24T18:27:03.437Z,99893.06
2023-02-24T18:29:50.560Z,99900.91
2023-02-24T18:32:37.807Z,99897.50
2023-02-24T18:35:25.018Z,99902.78
2023-02-24T18:38:12.172Z,99902.81
2023-02-24T18:40:59.088Z,99907.19
2023-02-24T18:43:46.044Z,99908.09
2023-02-24T18:46:34.732Z,99905.56
2023-02-24T18:49:21.906Z,99903.91
2023-02-24T18:52:08.875Z,99910.00
2023-02-24T18:54:55.850Z,99909.22
2023-02-24T18:57:42.641Z,99908.38
2023-02-24T19:00:30.397Z,99916.25
2023-02-24T19:03:17.220Z,99882.75
2023-02-24T19:06:04.339Z,99914.72
2023-02-24T19:08:51.522Z,99929.50
2023-02-24T19:11:40.785Z,99912.34
2023-02-24T19:14:28.735Z,99928.75
2023-02-24T19:17:15.670Z,99927.09
2023-02-24T19:20:02.565Z,99926.28
2023-02-24T19:22:51.616Z,99922.03
2023-02-24T19:25:38.740Z,99917.75
2023-02-24T19:28:25.634Z,99935.19
2023-02-24T19:31:12.566Z,99939.56
2023-02-24T19:33:59.625Z,99944.84
2023-02-24T19:36:47.366Z,99944.91
2023-02-24T19:39:36.139Z,99941.50
2023-02-24T19:42:23.110Z,99953.72
2023-02-24T19:45:10.893Z,99903.00
2023-02-24T19:47:57.992Z,99945.09
2023-02-24T19:50:45.418Z,99953.00
2023-02-24T19:53:32.630Z,99947.84
2023-02-24T19:56:20.466Z,99948.75
2023-02-24T19:59:07.785Z,99955.72
2023-02-24T20:01:55.021Z,99966.16
2023-02-24T20:04:42.845Z,99967.09
2023-02-24T20:07:29.738Z,99961.03
2023-02-24T20:10:16.590Z,99973.22
2023-02-24T20:13:03.641Z,99972.44
2023-02-24T20:15:50.599Z,99970.69
2023-02-24T20:18:37.610Z,99973.38
2023-02-24T20:21:24.989Z,99977.69
2023-02-24T20:24:13.564Z,99953.66
2023-02-24T20:27:03.446Z,99986.44
2023-02-24T20:29:53.733Z,99984.72
2023-02-24T20:32:40.917Z,99977.00
2023-02-24T20:35:30.004Z,99960.69
2023-02-24T20:38:16.936Z,99986.53
2023-02-24T20:41:03.866Z,99992.66
2023-02-24T20:43:51.091Z,99994.38
2023-02-24T20:46:47.161Z,99995.28
2023-02-24T20:49:37.337Z,100000.50
2023-02-24T20:52:24.258Z,100004.88
2023-02-24T20:55:11.223Z,100008.38
2023-02-24T20:57:58.173Z,100013.63
2023-02-24T21:00:46.181Z,100018.84
2023-02-24T21:03:33.124Z,100025.81
2023-02-24T21:06:20.076Z,100029.31
2023-02-24T21:09:07.114Z,100029.34
2023-02-24T21:11:54.920Z,100025.00
2023-02-24T21:14:41.984Z,100015.56
2023-02-24T21:17:30.644Z,100028.53
2023-02-24T21:20:17.798Z,100026.88
2023-02-24T21:23:04.794Z,100038.13
2023-02-24T21:25:51.620Z,100036.41
2023-02-24T21:28:40.860Z,100023.63
2023-02-24T21:31:30.006Z,100046.00
2023-02-24T21:34:17.080Z,100049.50
2023-02-24T21:37:04.377Z,100052.13
2023-02-24T21:39:51.401Z,100059.09
2023-02-24T21:42:38.777Z,100056.53
2023-02-24T21:45:26.136Z,100060.03
2023-02-24T21:48:13.481Z,100062.66
2023-02-24T21:51:00.429Z,100060.09
2023-02-24T21:53:47.354Z,100067.06
2023-02-24T21:56:37.591Z,100061.88
2023-02-24T21:59:26.785Z,100054.16
2023-02-24T22:02:13.706Z,100060.19
2023-02-24T22:05:00.697Z,100055.91
2023-02-24T22:07:47.711Z,100067.19
2023-02-24T22:10:37.969Z,100067.22
2023-02-24T22:13:24.923Z,100074.16
2023-02-24T22:16:11.961Z,100062.94
2023-02-24T22:18:59.022Z,100081.97
2023-02-24T22:21:47.928Z,100075.91
2023-02-24T22:24:37.030Z,100076.78
2023-02-24T22:27:23.955Z,100086.31
2023-02-24T22:30:10.819Z,100088.91
2023-02-24T22:32:57.746Z,100101.91
2023-02-24T22:35:44.705Z,100085.53
2023-02-24T22:38:31.681Z,100089.78
2023-02-24T22:41:19.784Z,100086.34
2023-02-24T22:44:07.305Z,100088.91
2023-02-24T22:46:57.084Z,100088.88
2023-02-24T22:49:44.101Z,100075.16
2023-02-24T22:52:31.149Z,100090.69
2023-02-24T22:55:18.212Z,100106.22
2023-02-24T22:58:05.513Z,100112.25
2023-02-24T23:00:52.533Z,100108.81
2023-02-24T23:03:42.085Z,100114.81
2023-02-24T23:06:35.848Z,100116.63
2023-02-24T23:09:24.098Z,100115.66
2023-02-24T23:12:11.869Z,100119.13
2023-02-24T23:14:58.816Z,100114.75
2023-02-24T23:17:45.729Z,100120.81
2023-02-24T23:20:32.791Z,100132.06
2023-02-24T23:23:19.875Z,100137.25
2023-02-24T23:26:13.798Z,100127.72
2023-02-24T23:29:01.036Z,100133.78
2023-02-24T23:31:48.274Z,100120.81
2023-02-24T23:34:35.595Z,100145.03
2023-02-24T23:37:22.585Z,100144.16
2023-02-24T23:40:09.427Z,100083.78
2023-02-24T23:42:56.361Z,100151.13
2023-02-24T23:45:43.448Z,100143.31
2023-02-24T23:48:32.319Z,100137.28
2023-02-24T23:51:22.819Z,100155.44
2023-02-24T23:54:10.991Z,100156.31
2023-02-24T23:56:57.982Z,100155.47
2023-02-24T23:59:45.059Z,100165.84
